Time;durP1;ratioP1;P1;durP2;ratioP2;P2;SDS_P1;SDS_P2;PMS_P1;PMS_P2;Temp;Humidity;BMP_temperature;BMP_pressure;BME280_temperature;BME280_humidity;BME280_pressure;Samples;Min_cycle;Max_cycle;Signal;HPM_P1;HPM_P2
2021/12/14 00:01:34;;;;;;;20.85;12.90;;;8.70;99.90;;;;;;5067859;28;20040;-77
2021/12/14 00:04:16;;;;;;;20.23;12.70;;;8.70;99.90;;;;;;5067952;28;20523;-78
2021/12/14 00:06:42;;;;;;;18.35;11.95;;;8.70;99.90;;;;;;5071387;28;20274;-77
2021/12/14 00:09:11;;;;;;;19.75;12.38;;;8.70;99.90;;;;;;5089977;28;20032;-77
2021/12/14 00:15:09;;;;;;;18.95;12.77;;;8.70;99.90;;;;;;5084146;28;20051;-77
2021/12/14 00:17:25;;;;;;;21.10;11.32;;;8.70;99.90;;;;;;5077092;28;20664;-78
2021/12/14 00:19:54;;;;;;;16.33;11.75;;;8.70;99.90;;;;;;5085763;28;20032;-77
2021/12/14 00:25:06;;;;;;;21.40;12.40;;;8.70;99.90;;;;;;5065935;28;20071;-77
2021/12/14 00:27:33;;;;;;;19.05;12.15;;;8.70;99.90;;;;;;5084648;28;20039;-77
2021/12/14 00:30:02;;;;;;;20.10;11.45;;;8.70;99.90;;;;;;5069391;28;20081;-77
2021/12/14 00:32:35;;;;;;;19.75;12.13;;;8.70;99.90;;;;;;5082883;28;20043;-77
2021/12/14 00:35:03;;;;;;;19.00;11.90;;;8.70;99.90;;;;;;5068045;28;20385;-77
2021/12/14 00:37:34;;;;;;;16.73;11.52;;;8.70;99.90;;;;;;5069078;28;20042;-77
2021/12/14 00:40:06;;;;;;;16.52;11.13;;;8.70;99.90;;;;;;5085515;28;20032;-76
2021/12/14 00:42:32;;;;;;;18.40;11.80;;;8.70;99.90;;;;;;5099032;28;20032;-77
2021/12/14 00:44:57;;;;;;;17.05;11.65;;;8.70;99.90;;;;;;5103050;28;20040;-77
2021/12/14 00:47:23;;;;;;;17.60;11.32;;;8.70;99.90;;;;;;5062082;28;20043;-77
2021/12/14 00:49:52;;;;;;;21.75;12.70;;;8.70;99.90;;;;;;5069719;28;20043;-77
2021/12/14 00:52:18;;;;;;;20.60;12.82;;;8.70;99.90;;;;;;5099808;28;20036;-77
2021/12/14 00:54:43;;;;;;;19.13;12.50;;;8.70;99.90;;;;;;5106185;28;20164;-77
2021/12/14 00:57:09;;;;;;;21.05;12.43;;;8.60;99.90;;;;;;5071220;28;20142;-77
2021/12/14 00:59:35;;;;;;;18.00;12.98;;;8.70;99.90;;;;;;5105312;28;20027;-77
2021/12/14 01:02:07;;;;;;;20.42;13.05;;;8.70;99.90;;;;;;5090758;28;20043;-78
2021/12/14 01:04:50;;;;;;;18.65;12.43;;;8.70;99.90;;;;;;5070147;28;20036;-77
2021/12/14 01:07:19;;;;;;;18.20;12.55;;;8.60;99.90;;;;;;5101823;28;20051;-77
2021/12/14 01:09:47;;;;;;;18.50;12.32;;;8.60;99.90;;;;;;5087366;28;20036;-78
2021/12/14 01:12:21;;;;;;;21.80;13.32;;;8.60;99.90;;;;;;5070595;28;20056;-77
2021/12/14 01:15:00;;;;;;;21.95;13.82;;;8.60;99.90;;;;;;5089407;28;20036;-77
2021/12/14 01:17:39;;;;;;;22.38;14.25;;;8.60;99.90;;;;;;5087002;28;20064;-78
2021/12/14 01:20:07;;;;;;;21.67;13.70;;;8.70;99.90;;;;;;5073537;28;20028;-77
2021/12/14 01:22:46;;;;;;;22.30;13.65;;;8.60;99.90;;;;;;5105131;28;20081;-77
2021/12/14 01:25:24;;;;;;;21.95;14.13;;;8.70;99.90;;;;;;5100389;28;20089;-77
2021/12/14 01:28:13;;;;;;;25.48;14.73;;;8.60;99.90;;;;;;5083801;28;20043;-77
2021/12/14 01:31:01;;;;;;;21.15;13.27;;;8.60;99.90;;;;;;5080127;28;20501;-77
2021/12/14 01:33:28;;;;;;;26.83;14.63;;;8.60;99.90;;;;;;5074526;28;20345;-77
2021/12/14 01:35:55;;;;;;;21.98;14.55;;;8.60;99.90;;;;;;5074487;28;20423;-77
2021/12/14 01:38:34;;;;;;;20.65;14.10;;;8.60;99.90;;;;;;5110535;27;20119;-77
2021/12/14 01:41:07;;;;;;;24.20;15.38;;;8.70;99.90;;;;;;5092364;28;20035;-77
2021/12/14 01:43:47;;;;;;;23.65;15.30;;;8.70;99.90;;;;;;5109494;27;20405;-77
2021/12/14 01:46:25;;;;;;;25.48;15.27;;;8.60;99.90;;;;;;5061131;28;20048;-77
2021/12/14 01:48:51;;;;;;;23.70;15.57;;;8.60;99.90;;;;;;5089607;28;20161;-77
2021/12/14 01:51:18;;;;;;;24.15;15.68;;;8.60;99.90;;;;;;5106141;27;20409;-77
2021/12/14 01:53:46;;;;;;;24.23;15.07;;;8.70;99.90;;;;;;5071065;28;20405;-77
2021/12/14 01:56:15;;;;;;;24.95;15.70;;;8.70;99.90;;;;;;5084609;28;20081;-77
2021/12/14 01:58:51;;;;;;;24.92;15.38;;;8.60;99.90;;;;;;5103583;28;20028;-77
2021/12/14 02:01:23;;;;;;;24.08;15.13;;;8.60;99.90;;;;;;5072661;28;20044;-77
2021/12/14 02:03:58;;;;;;;26.25;16.75;;;8.70;99.90;;;;;;5070570;28;20386;-78
2021/12/14 02:06:28;;;;;;;26.07;15.43;;;8.70;99.90;;;;;;5085501;28;20051;-77
2021/12/14 02:09:00;;;;;;;24.02;16.00;;;8.70;99.90;;;;;;5067538;28;20278;-76
2021/12/14 02:11:31;;;;;;;27.10;17.17;;;8.60;99.90;;;;;;5104197;27;20111;-77
2021/12/14 02:13:57;;;;;;;24.27;14.68;;;8.60;99.90;;;;;;5103344;28;20055;-77
2021/12/14 02:16:23;;;;;;;28.52;15.77;;;8.60;99.90;;;;;;5071714;28;20429;-78
2021/12/14 02:18:55;;;;;;;25.17;16.42;;;8.70;99.90;;;;;;5070317;28;20043;-77
2021/12/14 02:21:22;;;;;;;26.13;15.88;;;8.60;99.90;;;;;;5103638;28;20166;-77
2021/12/14 02:23:51;;;;;;;28.13;16.88;;;8.60;99.90;;;;;;5107029;27;20513;-77
2021/12/14 02:26:20;;;;;;;31.17;16.65;;;8.70;99.90;;;;;;5067829;28;20490;-78
2021/12/14 02:28:46;;;;;;;26.40;16.20;;;8.70;99.90;;;;;;5085200;28;20121;-77
2021/12/14 02:31:15;;;;;;;25.45;16.85;;;8.70;99.90;;;;;;5103894;28;20058;-77
2021/12/14 02:33:44;;;;;;;28.23;16.45;;;8.60;99.90;;;;;;5085184;28;20040;-77
2021/12/14 02:36:17;;;;;;;25.00;16.40;;;8.60;99.90;;;;;;5068472;28;20028;-77
2021/12/14 02:38:45;;;;;;;25.65;17.23;;;8.60;99.90;;;;;;5099390;28;20166;-77
2021/12/14 02:41:11;;;;;;;24.67;16.63;;;8.60;99.90;;;;;;5083722;28;20543;-77
2021/12/14 02:43:45;;;;;;;25.92;15.90;;;8.70;99.90;;;;;;5070502;28;20576;-77
2021/12/14 02:46:13;;;;;;;25.73;16.15;;;8.60;99.90;;;;;;5086052;28;20040;-77
2021/12/14 02:48:43;;;;;;;27.30;16.83;;;8.60;99.90;;;;;;5087810;28;20374;-78
2021/12/14 02:51:22;;;;;;;26.65;17.27;;;8.70;99.90;;;;;;5071490;28;20036;-77
2021/12/14 02:53:50;;;;;;;28.25;17.45;;;8.60;99.90;;;;;;5103631;28;20448;-77
2021/12/14 02:56:20;;;;;;;31.73;19.58;;;8.60;99.90;;;;;;5087198;28;20044;-77
2021/12/14 02:58:49;;;;;;;31.45;17.52;;;8.60;99.90;;;;;;5070331;28;20539;-77
2021/12/14 03:01:17;;;;;;;30.25;17.67;;;8.60;99.90;;;;;;5102931;28;20044;-77
2021/12/14 03:03:43;;;;;;;31.25;18.15;;;8.60;99.90;;;;;;5089460;28;20070;-77
2021/12/14 03:06:11;;;;;;;28.88;17.02;;;8.70;99.90;;;;;;5056325;28;20036;-77
2021/12/14 03:08:45;;;;;;;28.35;17.50;;;8.60;99.90;;;;;;5103431;28;20032;-77
2021/12/14 03:11:12;;;;;;;29.50;16.80;;;8.70;99.90;;;;;;5088299;28;20112;-77
2021/12/14 03:13:51;;;;;;;30.80;18.48;;;8.60;99.90;;;;;;5087259;28;20044;-77
2021/12/14 03:16:32;;;;;;;28.90;17.13;;;8.60;99.90;;;;;;5067192;28;20040;-77
2021/12/14 03:18:59;;;;;;;32.50;17.70;;;8.60;99.90;;;;;;5066004;28;20043;-77
2021/12/14 03:21:31;;;;;;;30.95;18.30;;;8.60;99.90;;;;;;5069410;28;20486;-77
2021/12/14 03:24:07;;;;;;;32.00;18.73;;;8.50;99.90;;;;;;5086245;28;20064;-77
2021/12/14 03:26:36;;;;;;;31.05;18.85;;;8.60;99.90;;;;;;5085930;28;20031;-77
2021/12/14 03:29:09;;;;;;;33.35;19.08;;;8.50;99.90;;;;;;5099270;28;20059;-77
2021/12/14 03:31:45;;;;;;;35.05;18.95;;;8.60;99.90;;;;;;5102728;28;20028;-77
2021/12/14 03:34:23;;;;;;;32.35;19.83;;;8.50;99.90;;;;;;5101901;27;20100;-77
2021/12/14 03:36:59;;;;;;;34.80;19.92;;;8.50;99.90;;;;;;5087432;28;20039;-77
2021/12/14 03:39:25;;;;;;;36.70;20.85;;;8.50;99.90;;;;;;5086004;28;20036;-77
2021/12/14 03:41:58;;;;;;;34.53;20.48;;;8.50;99.90;;;;;;5102874;28;20516;-77
2021/12/14 03:44:33;;;;;;;37.35;20.83;;;8.50;99.90;;;;;;5083885;28;20477;-77
2021/12/14 03:47:16;;;;;;;38.05;21.17;;;8.50;99.90;;;;;;5101066;28;20035;-77
2021/12/14 03:49:46;;;;;;;38.72;22.30;;;8.50;99.90;;;;;;5104428;27;20445;-77
2021/12/14 03:52:17;;;;;;;38.17;21.00;;;8.50;99.90;;;;;;5084386;28;20040;-77
2021/12/14 03:54:44;;;;;;;37.38;21.20;;;8.50;99.90;;;;;;5068459;28;20028;-77
2021/12/14 03:57:10;;;;;;;38.90;22.75;;;8.50;99.90;;;;;;5071062;28;20032;-76
2021/12/14 03:59:36;;;;;;;44.35;22.92;;;8.50;99.90;;;;;;5086704;28;20085;-77
2021/12/14 04:02:07;;;;;;;40.65;22.15;;;8.40;99.90;;;;;;5087213;28;20039;-77
2021/12/14 04:04:37;;;;;;;38.58;22.85;;;8.50;99.90;;;;;;5070367;28;20064;-77
2021/12/14 04:07:07;;;;;;;41.45;23.20;;;8.50;99.90;;;;;;5100066;28;20127;-77
2021/12/14 04:09:35;;;;;;;42.20;23.13;;;8.50;99.90;;;;;;5085713;28;20067;-77
2021/12/14 04:12:01;;;;;;;41.38;23.05;;;8.50;99.90;;;;;;5101496;28;20032;-77
2021/12/14 04:14:29;;;;;;;40.88;24.33;;;8.50;99.90;;;;;;5084469;28;20459;-77
2021/12/14 04:16:57;;;;;;;39.38;21.90;;;8.50;99.90;;;;;;5068784;28;20384;-77
2021/12/14 04:19:28;;;;;;;40.58;23.08;;;8.50;99.90;;;;;;5084854;28;20501;-77
2021/12/14 04:21:57;;;;;;;45.50;24.90;;;8.50;99.90;;;;;;5064940;28;20126;-77
2021/12/14 04:24:29;;;;;;;43.78;23.65;;;8.50;99.90;;;;;;5101930;28;20040;-77
2021/12/14 04:26:56;;;;;;;40.65;22.83;;;8.50;99.90;;;;;;5085642;28;20043;-77
2021/12/14 04:29:22;;;;;;;42.38;23.75;;;8.50;99.90;;;;;;5071505;28;20453;-77
2021/12/14 04:31:50;;;;;;;37.90;21.52;;;8.50;99.90;;;;;;5106321;28;20127;-77
2021/12/14 04:34:17;;;;;;;44.08;23.98;;;8.50;99.90;;;;;;5103908;28;20032;-77
2021/12/14 04:36:46;;;;;;;40.60;22.63;;;8.50;99.90;;;;;;5103729;27;20531;-76
2021/12/14 04:53:30;;;;;;;43.67;24.40;;;8.40;99.90;;;;;;5091117;28;20048;-77
2021/12/14 04:55:56;;;;;;;44.80;23.70;;;8.50;99.90;;;;;;5088068;28;20104;-77
2021/12/14 04:58:45;;;;;;;42.35;24.20;;;8.50;99.90;;;;;;5070887;28;20062;-77
2021/12/14 05:01:13;;;;;;;46.45;25.42;;;8.50;99.90;;;;;;5071938;28;20040;-77
2021/12/14 05:03:43;;;;;;;43.85;24.60;;;8.50;99.90;;;;;;5091760;28;20408;-77
2021/12/14 05:11:11;;;;;;;44.70;24.13;;;8.50;99.90;;;;;;5087130;28;20079;-77
2021/12/14 05:14:07;;;;;;;43.55;23.23;;;8.50;99.90;;;;;;5071384;28;20059;-77
2021/12/14 05:16:33;;;;;;;42.63;22.88;;;8.50;99.90;;;;;;5056392;28;20592;-76
2021/12/14 05:19:03;;;;;;;38.17;23.40;;;8.50;99.90;;;;;;5071700;28;20137;-76
2021/12/14 05:21:33;;;;;;;42.20;24.02;;;8.50;99.90;;;;;;5072045;28;20051;-77
2021/12/14 05:24:00;;;;;;;41.72;23.58;;;8.50;99.90;;;;;;5099948;28;20107;-77
2021/12/14 05:26:27;;;;;;;41.67;23.65;;;8.50;99.90;;;;;;5083676;28;20571;-77
2021/12/14 05:28:53;;;;;;;45.67;25.90;;;8.50;99.90;;;;;;5100589;28;20081;-77
2021/12/14 05:31:18;;;;;;;40.65;23.60;;;8.50;99.90;;;;;;5103921;28;20140;-77
2021/12/14 05:33:44;;;;;;;41.17;24.08;;;8.50;99.90;;;;;;5069380;28;20035;-77
2021/12/14 05:36:14;;;;;;;43.10;25.40;;;8.50;99.90;;;;;;5087250;28;20050;-77
2021/12/14 05:38:54;;;;;;;42.95;24.13;;;8.50;99.90;;;;;;5106003;27;20054;-77
2021/12/14 05:44:19;;;;;;;;;;;8.50;99.90;;;;;;5087675;28;20615;-77
2021/12/14 05:46:50;;;;;;;47.40;25.67;;;8.50;99.90;;;;;;5070985;28;20357;-77
2021/12/14 05:49:26;;;;;;;45.25;25.67;;;8.50;99.90;;;;;;5084392;28;20075;-76
2021/12/14 05:51:53;;;;;;;47.05;25.35;;;8.50;99.90;;;;;;5070333;28;20052;-77
2021/12/14 05:54:21;;;;;;;48.20;26.00;;;8.50;99.90;;;;;;5104825;28;20204;-77
2021/12/14 05:56:48;;;;;;;49.17;26.77;;;8.50;99.90;;;;;;5071261;28;20464;-77
2021/12/14 05:59:18;;;;;;;51.22;26.85;;;8.50;99.90;;;;;;5087985;28;20054;-77
2021/12/14 06:01:45;;;;;;;53.80;27.48;;;8.50;99.90;;;;;;5087105;28;20040;-76
2021/12/14 06:04:11;;;;;;;52.53;28.33;;;8.50;99.90;;;;;;5072973;28;20095;-77
2021/12/14 06:06:45;;;;;;;53.45;28.25;;;8.50;99.90;;;;;;5088819;28;20043;-77
2021/12/14 06:09:24;;;;;;;56.08;29.25;;;8.40;99.90;;;;;;5087131;28;20078;-77
2021/12/14 06:11:55;;;;;;;52.42;27.08;;;8.40;99.90;;;;;;5070953;28;20040;-77
2021/12/14 06:14:24;;;;;;;54.08;28.58;;;8.40;99.90;;;;;;5065767;28;20048;-77
2021/12/14 06:16:54;;;;;;;56.75;29.55;;;8.40;99.90;;;;;;5070328;28;20036;-77
2021/12/14 06:19:27;;;;;;;57.65;29.73;;;8.40;99.90;;;;;;5085161;28;20059;-77
2021/12/14 06:21:57;;;;;;;56.75;28.98;;;8.40;99.90;;;;;;5070951;28;20031;-77
2021/12/14 06:24:25;;;;;;;56.42;29.73;;;8.40;99.90;;;;;;5085771;28;20043;-77
2021/12/14 06:26:53;;;;;;;57.85;29.88;;;8.40;99.90;;;;;;5089691;28;20063;-77
2021/12/14 06:29:29;;;;;;;58.78;29.70;;;8.50;99.90;;;;;;5084874;28;21545;-77
2021/12/14 06:31:55;;;;;;;;;;;8.40;99.90;;;;;;5083867;28;20028;-77
2021/12/14 06:34:29;;;;;;;61.80;29.92;;;8.40;99.90;;;;;;5072702;28;19923;-77
2021/12/14 06:37:04;;;;;;;61.90;30.45;;;8.40;99.90;;;;;;5086035;28;20035;-77
2021/12/14 06:39:58;;;;;;;62.95;31.00;;;8.40;99.90;;;;;;5070378;28;20363;-77
2021/12/14 06:42:23;;;;;;;62.78;31.75;;;8.40;99.90;;;;;;5090729;28;20051;-77
2021/12/14 06:44:49;;;;;;;61.97;31.40;;;8.40;99.90;;;;;;5089755;28;20047;-77
2021/12/14 06:47:15;;;;;;;65.20;32.47;;;8.40;99.90;;;;;;5069884;28;20132;-77
2021/12/14 06:49:40;;;;;;;64.18;33.20;;;8.40;99.90;;;;;;5069193;28;20047;-77
2021/12/14 06:52:07;;;;;;;58.83;31.42;;;8.40;99.90;;;;;;5071283;28;20383;-76
2021/12/14 06:54:32;;;;;;;67.55;33.78;;;8.40;99.90;;;;;;5088103;28;20035;-77
2021/12/14 06:57:04;;;;;;;64.07;32.67;;;8.40;99.90;;;;;;5071381;28;20545;-77
2021/12/14 06:59:30;;;;;;;65.22;32.90;;;8.40;99.90;;;;;;5102052;28;20513;-77
2021/12/14 07:02:00;;;;;;;65.93;31.05;;;8.40;99.90;;;;;;5086939;28;20043;-77
2021/12/14 07:04:30;;;;;;;68.57;33.33;;;8.40;99.90;;;;;;5067763;28;20037;-77
2021/12/14 07:07:09;;;;;;;69.07;34.10;;;8.40;99.90;;;;;;5084488;28;20039;-77
2021/12/14 07:09:42;;;;;;;73.10;34.00;;;8.40;99.90;;;;;;5102177;27;20051;-76
2021/12/14 07:12:27;;;;;;;70.93;33.13;;;8.40;99.90;;;;;;5095365;28;20059;-77
2021/12/14 07:14:53;;;;;;;67.70;33.42;;;8.40;99.90;;;;;;5069743;28;20071;-77
2021/12/14 07:17:28;;;;;;;76.50;34.83;;;8.40;99.90;;;;;;5079844;28;20653;-76
2021/12/14 07:20:11;;;;;;;72.95;35.95;;;8.40;99.90;;;;;;5069629;28;20041;-77
2021/12/14 07:22:42;;;;;;;73.32;35.20;;;8.40;99.90;;;;;;5107573;27;20044;-77
2021/12/14 07:25:12;;;;;;;73.68;34.45;;;8.30;99.90;;;;;;5106482;27;20075;-77
2021/12/14 07:27:38;;;;;;;71.25;33.65;;;8.40;99.90;;;;;;5083613;28;20131;-78
2021/12/14 07:30:41;;;;;;;69.95;34.17;;;8.40;99.90;;;;;;5071989;28;20485;-77
2021/12/14 07:33:18;;;;;;;70.90;34.42;;;8.40;99.90;;;;;;5086578;28;20052;-76
2021/12/14 07:35:52;;;;;;;73.32;35.53;;;8.40;99.90;;;;;;5080318;28;20561;-77
2021/12/14 07:38:27;;;;;;;77.28;36.55;;;8.40;99.90;;;;;;5064156;28;20040;-78
2021/12/14 07:41:22;;;;;;;76.10;36.40;;;8.40;99.90;;;;;;5066046;28;20530;-78
2021/12/14 07:44:05;;;;;;;75.20;34.63;;;8.40;99.90;;;;;;5085752;28;20051;-78
2021/12/14 07:46:44;;;;;;;71.63;34.67;;;8.40;99.90;;;;;;5074347;28;20105;-77
2021/12/14 07:49:21;;;;;;;76.07;36.35;;;8.50;99.90;;;;;;5069787;28;20034;-77
2021/12/14 07:51:50;;;;;;;74.85;35.88;;;8.40;99.90;;;;;;5100784;27;20044;-78
2021/12/14 07:54:24;;;;;;;80.18;37.70;;;8.40;99.90;;;;;;5091933;28;20032;-78
2021/12/14 07:57:03;;;;;;;77.00;36.65;;;8.50;99.90;;;;;;5081998;28;20051;-79
2021/12/14 07:59:36;;;;;;;83.32;36.80;;;8.40;99.90;;;;;;5102695;27;20543;-78
2021/12/14 08:02:15;;;;;;;89.60;38.42;;;8.40;99.90;;;;;;5075382;28;20528;-78
2021/12/14 08:04:49;;;;;;;84.95;37.30;;;8.40;99.90;;;;;;5084387;28;20072;-78
2021/12/14 08:07:43;;;;;;;78.65;35.55;;;8.40;99.90;;;;;;5068618;28;20071;-77
2021/12/14 08:10:15;;;;;;;90.88;37.85;;;8.50;99.90;;;;;;5068646;28;20036;-78
2021/12/14 08:12:46;;;;;;;86.57;38.85;;;8.50;99.90;;;;;;5098450;28;20404;-77
2021/12/14 08:15:30;;;;;;;80.10;37.33;;;8.50;99.90;;;;;;5065517;28;20043;-78
2021/12/14 08:18:20;;;;;;;78.97;36.15;;;8.50;99.90;;;;;;5082062;28;20036;-77
2021/12/14 08:20:57;;;;;;;76.85;35.05;;;8.50;99.90;;;;;;5102241;28;20490;-78
2021/12/14 08:23:35;;;;;;;76.75;35.22;;;8.50;99.90;;;;;;5085861;28;20052;-77
2021/12/14 08:26:06;;;;;;;82.28;37.42;;;8.50;99.90;;;;;;5101591;28;20116;-78
2021/12/14 08:28:49;;;;;;;78.57;35.47;;;8.50;99.90;;;;;;5069501;28;20043;-78
2021/12/14 08:31:15;;;;;;;76.70;36.80;;;8.50;99.90;;;;;;5079002;28;20092;-78
2021/12/14 08:33:42;;;;;;;84.25;37.78;;;8.50;99.90;;;;;;5099806;28;20397;-87
2021/12/14 08:36:11;;;;;;;85.15;37.28;;;8.60;99.90;;;;;;5085360;28;20124;-78
2021/12/14 08:38:38;;;;;;;84.28;38.70;;;8.60;99.90;;;;;;5065652;28;20043;-77
2021/12/14 08:41:16;;;;;;;84.68;38.80;;;8.60;99.90;;;;;;5084269;28;20039;-77
2021/12/14 08:43:52;;;;;;;77.25;36.70;;;8.60;99.90;;;;;;5068666;28;20047;-77
2021/12/14 08:46:25;;;;;;;80.55;38.28;;;8.60;99.90;;;;;;5099372;28;20084;-77
2021/12/14 08:48:56;;;;;;;81.93;37.60;;;8.60;99.90;;;;;;5056675;28;20098;-77
2021/12/14 08:51:40;;;;;;;81.15;37.70;;;8.60;99.90;;;;;;5085701;28;20032;-78
2021/12/14 08:54:22;;;;;;;84.32;36.05;;;8.60;99.90;;;;;;5068550;28;20036;-78
2021/12/14 08:56:53;;;;;;;80.13;37.45;;;8.70;99.90;;;;;;5083850;28;20699;-77
2021/12/14 08:59:19;;;;;;;77.47;37.10;;;8.70;99.90;;;;;;5097950;28;20424;-78
2021/12/14 09:01:46;;;;;;;82.68;37.72;;;8.70;99.90;;;;;;5083100;28;20515;-77
2021/12/14 09:04:18;;;;;;;83.47;38.10;;;8.70;99.90;;;;;;5068788;28;20178;-77
2021/12/14 09:06:46;;;;;;;75.45;37.10;;;8.70;99.90;;;;;;5074963;28;20677;-77
2021/12/14 09:09:16;;;;;;;75.10;36.97;;;8.70;99.90;;;;;;5068808;28;20047;-77
2021/12/14 09:11:46;;;;;;;83.70;39.05;;;8.70;99.90;;;;;;5067591;28;20127;-79
2021/12/14 09:14:15;;;;;;;74.65;36.13;;;8.70;99.90;;;;;;5067502;28;22186;-78
2021/12/14 09:16:44;;;;;;;77.65;36.13;;;8.70;99.90;;;;;;5089473;28;20062;-78
2021/12/14 09:19:24;;;;;;;78.53;36.63;;;8.70;99.90;;;;;;5087528;28;20421;-78
2021/12/14 09:21:53;;;;;;;71.05;35.63;;;8.70;99.90;;;;;;5086050;28;20040;-79
2021/12/14 09:24:23;;;;;;;74.65;36.90;;;8.70;99.90;;;;;;5072527;28;20040;-78
2021/12/14 09:26:53;;;;;;;75.63;35.50;;;8.70;99.90;;;;;;5089794;28;20139;-78
2021/12/14 09:29:21;;;;;;;73.93;35.55;;;8.70;99.90;;;;;;5088214;28;20990;-78
2021/12/14 09:31:49;;;;;;;76.72;36.92;;;8.70;99.90;;;;;;5070377;28;20043;-78
2021/12/14 09:34:18;;;;;;;72.22;35.47;;;8.70;99.90;;;;;;5089320;28;20481;-78
2021/12/14 09:36:45;;;;;;;73.82;36.47;;;8.70;99.90;;;;;;5072534;28;20032;-78
2021/12/14 09:39:15;;;;;;;72.70;34.75;;;8.70;99.90;;;;;;5089073;28;20400;-78
2021/12/14 09:41:44;;;;;;;80.50;37.25;;;8.70;99.90;;;;;;5071572;28;20093;-78
2021/12/14 09:44:13;;;;;;;75.68;36.35;;;8.70;99.90;;;;;;5071714;28;20028;-78
2021/12/14 09:46:40;;;;;;;71.07;34.67;;;8.80;99.90;;;;;;5072413;28;20063;-78
2021/12/14 09:49:09;;;;;;;81.20;38.15;;;8.80;99.90;;;;;;5073192;28;20074;-78
2021/12/14 09:51:44;;;;;;;77.55;36.38;;;8.80;99.90;;;;;;5088763;28;20044;-78
2021/12/14 09:54:13;;;;;;;79.78;36.70;;;8.80;99.90;;;;;;5072131;28;20032;-78
2021/12/14 09:56:45;;;;;;;77.15;37.10;;;8.80;99.90;;;;;;5072264;28;20032;-78
2021/12/14 09:59:12;;;;;;;80.15;38.28;;;8.80;99.90;;;;;;5069960;28;20063;-78
2021/12/14 10:01:40;;;;;;;82.00;37.53;;;8.90;99.90;;;;;;5067056;28;20036;-78
2021/12/14 10:04:15;;;;;;;81.22;38.65;;;8.80;99.90;;;;;;5088738;28;20044;-78
2021/12/14 10:06:41;;;;;;;85.30;38.37;;;8.80;99.90;;;;;;5083012;28;20036;-77
2021/12/14 10:09:11;;;;;;;85.10;38.63;;;8.80;99.90;;;;;;5071696;28;20040;-77
2021/12/14 10:14:40;;;;;;;83.45;36.53;;;8.80;99.90;;;;;;5019955;28;20064;-78
2021/12/14 10:17:11;;;;;;;83.78;36.55;;;8.90;99.90;;;;;;5082644;28;20040;-79
2021/12/14 10:19:38;;;;;;;79.10;37.40;;;8.80;99.90;;;;;;5086079;28;20059;-78
2021/12/14 10:22:13;;;;;;;80.75;36.85;;;8.80;99.90;;;;;;5067795;28;20472;-78
2021/12/14 10:24:38;;;;;;;79.45;37.47;;;8.90;99.90;;;;;;5095077;27;20062;-77
2021/12/14 10:27:09;;;;;;;79.53;36.28;;;8.90;99.90;;;;;;5080202;28;20486;-78
2021/12/14 10:29:34;;;;;;;78.47;36.33;;;8.90;99.90;;;;;;5077892;28;20285;-77
2021/12/14 10:32:12;;;;;;;76.85;37.00;;;8.90;99.90;;;;;;5069661;28;20248;-77
2021/12/14 10:34:45;;;;;;;86.63;37.30;;;8.90;99.90;;;;;;5072986;28;20032;-78
2021/12/14 10:37:20;;;;;;;75.22;34.92;;;8.90;99.90;;;;;;5076270;28;20075;-77
2021/12/14 10:43:04;;;;;;;73.53;34.05;;;8.90;99.90;;;;;;5090526;28;20040;-79
2021/12/14 10:45:28;;;;;;;72.47;33.85;;;8.90;99.90;;;;;;5097542;28;20280;-78
2021/12/14 10:47:55;;;;;;;70.95;35.00;;;8.90;99.90;;;;;;5076840;28;20040;-78
2021/12/14 10:50:27;;;;;;;73.03;33.95;;;8.90;99.90;;;;;;5087885;28;20048;-78
2021/12/14 10:52:53;;;;;;;63.60;31.33;;;9.00;99.90;;;;;;5102460;27;20079;-78
2021/12/14 10:55:25;;;;;;;75.78;33.33;;;8.90;99.90;;;;;;5070927;28;20043;-78
2021/12/14 10:57:53;;;;;;;69.72;33.60;;;8.90;99.90;;;;;;5065666;28;20435;-78
2021/12/14 11:00:48;;;;;;;75.32;32.72;;;8.90;99.90;;;;;;5084855;28;20517;-78
2021/12/14 11:03:24;;;;;;;70.82;33.30;;;8.90;99.90;;;;;;5074873;28;20043;-78
2021/12/14 11:05:54;;;;;;;75.13;32.60;;;8.90;99.90;;;;;;5072157;28;20411;-78
2021/12/14 11:08:56;;;;;;;72.32;33.17;;;8.90;99.90;;;;;;5083777;28;20397;-78
2021/12/14 11:11:33;;;;;;;79.75;33.85;;;8.90;99.90;;;;;;5081230;28;20098;-78
2021/12/14 11:14:02;;;;;;;71.95;33.90;;;9.00;99.90;;;;;;5085370;28;20328;-78
2021/12/14 11:18:08;;;;;;;79.43;33.22;;;8.90;99.90;;;;;;5082660;28;20032;-78
2021/12/14 11:19:44;;;;;;;77.10;35.28;;;8.90;99.90;;;;;;5080721;28;20095;-78
2021/12/14 11:22:17;;;;;;;73.75;33.40;;;8.90;99.90;;;;;;5060669;28;20071;-79
2021/12/14 11:24:49;;;;;;;73.75;33.25;;;8.90;99.90;;;;;;5067891;28;20036;-78
2021/12/14 11:27:20;;;;;;;77.85;33.28;;;9.00;99.90;;;;;;5065863;28;20507;-78
2021/12/14 11:29:52;;;;;;;73.70;34.30;;;9.00;99.90;;;;;;5077659;28;20032;-78
2021/12/14 11:32:21;;;;;;;74.55;32.00;;;9.00;99.90;;;;;;5064044;28;20503;-79
2021/12/14 11:34:47;;;;;;;68.85;32.67;;;9.00;99.90;;;;;;5085263;28;20074;-79
2021/12/14 11:37:21;;;;;;;70.22;31.23;;;9.00;99.90;;;;;;5067428;28;20059;-79
2021/12/14 11:39:51;;;;;;;67.13;30.80;;;9.00;99.90;;;;;;5099272;28;20032;-80
2021/12/14 11:42:26;;;;;;;69.15;30.20;;;9.00;99.90;;;;;;5093758;28;20051;-81
2021/12/14 11:45:16;;;;;;;64.90;28.63;;;9.10;99.90;;;;;;5079992;28;20048;-80
2021/12/14 11:47:58;;;;;;;70.65;30.20;;;9.00;99.90;;;;;;5105237;28;20054;-79
2021/12/14 11:50:38;;;;;;;62.72;29.83;;;9.00;99.90;;;;;;5087515;28;20016;-79
2021/12/14 11:53:09;;;;;;;71.25;31.30;;;9.00;99.90;;;;;;5109848;28;20040;-79
2021/12/14 11:55:56;;;;;;;63.10;29.83;;;9.00;99.90;;;;;;5124181;28;20057;-79
2021/12/14 11:58:36;;;;;;;75.85;31.55;;;9.00;99.90;;;;;;5095943;28;20270;-80
2021/12/14 12:01:23;;;;;;;73.22;29.77;;;9.10;99.90;;;;;;5079035;28;20048;-79
2021/12/14 12:03:59;;;;;;;65.63;27.95;;;9.00;99.90;;;;;;5095209;28;20330;-79
2021/12/14 12:09:32;;;;;;;63.60;27.83;;;9.10;99.90;;;;;;5092783;28;20082;-78
2021/12/14 12:12:04;;;;;;;69.15;29.60;;;9.00;99.90;;;;;;5085976;28;20486;-80
2021/12/14 12:14:42;;;;;;;63.60;27.02;;;9.00;99.90;;;;;;5086618;28;20178;-78
2021/12/14 12:17:40;;;;;;;62.20;27.23;;;9.00;99.90;;;;;;5103041;28;20037;-77
2021/12/14 12:20:18;;;;;;;72.97;28.85;;;9.10;99.90;;;;;;5085439;28;20079;-78
2021/12/14 12:22:52;;;;;;;66.03;31.02;;;9.10;99.90;;;;;;5068070;28;20047;-78
2021/12/14 12:25:30;;;;;;;66.78;29.75;;;9.10;99.90;;;;;;5070011;28;20542;-78
2021/12/14 12:27:59;;;;;;;97.00;53.22;;;9.10;99.90;;;;;;5100174;28;20324;-78
2021/12/14 12:30:35;;;;;;;83.22;44.13;;;9.10;99.90;;;;;;5085652;28;20040;-78
2021/12/14 12:33:30;;;;;;;103.65;59.13;;;9.10;99.90;;;;;;5081151;28;20045;-78
2021/12/14 12:36:13;;;;;;;85.07;46.85;;;9.10;99.90;;;;;;5073286;28;20036;-84
2021/12/14 12:39:05;;;;;;;140.35;84.38;;;9.10;99.90;;;;;;5069112;28;20047;-79
2021/12/14 12:41:47;;;;;;;79.50;45.35;;;9.10;99.90;;;;;;5085915;28;20544;-79
2021/12/14 12:44:26;;;;;;;94.13;59.95;;;9.10;99.90;;;;;;5095401;28;20039;-81
2021/12/14 12:46:57;;;;;;;64.82;30.33;;;9.10;99.90;;;;;;5084886;28;20055;-81
2021/12/14 12:49:25;;;;;;;61.55;27.23;;;9.10;99.90;;;;;;5072008;28;20482;-80
2021/12/14 12:52:22;;;;;;;61.30;25.85;;;9.10;99.90;;;;;;5089893;28;20040;-78
2021/12/14 12:54:58;;;;;;;64.82;30.58;;;9.20;99.90;;;;;;5088287;28;20281;-80
2021/12/14 12:57:32;;;;;;;58.95;27.17;;;9.20;99.90;;;;;;5087070;28;20303;-77
2021/12/14 13:00:09;;;;;;;61.63;28.20;;;9.20;99.90;;;;;;5104540;28;20148;-79
2021/12/14 13:02:56;;;;;;;67.07;25.90;;;9.20;99.90;;;;;;5085300;28;20123;-80
2021/12/14 13:05:46;;;;;;;62.92;27.70;;;9.20;99.90;;;;;;5098364;28;20032;-79
2021/12/14 13:08:16;;;;;;;60.08;26.42;;;9.20;99.90;;;;;;5071727;28;20071;-79
2021/12/14 13:10:51;;;;;;;61.30;27.15;;;9.20;99.90;;;;;;5089066;28;20044;-79
2021/12/14 13:13:19;;;;;;;72.47;28.07;;;9.20;99.90;;;;;;5070926;28;20459;-78
2021/12/14 13:16:23;;;;;;;68.63;28.48;;;9.20;99.90;;;;;;5070480;28;20046;-79
2021/12/14 13:18:55;;;;;;;65.95;27.25;;;9.30;99.90;;;;;;5056266;28;20570;-79
2021/12/14 13:21:32;;;;;;;65.50;27.15;;;9.30;99.90;;;;;;5069216;28;20051;-79
2021/12/14 13:24:25;;;;;;;66.30;26.02;;;9.30;99.90;;;;;;5101853;28;20055;-78
2021/12/14 13:27:05;;;;;;;68.38;27.98;;;9.30;99.90;;;;;;5081041;28;20400;-78
2021/12/14 13:29:34;;;;;;;69.32;27.45;;;9.30;99.90;;;;;;5085579;28;20069;-79
2021/12/14 13:32:08;;;;;;;88.30;44.85;;;9.30;99.90;;;;;;5087434;28;20044;-80
2021/12/14 13:34:48;;;;;;;86.10;45.20;;;9.30;99.90;;;;;;5070444;28;20035;-85
2021/12/14 13:37:20;;;;;;;83.78;36.30;;;9.30;99.90;;;;;;5094371;28;20102;-79
2021/12/14 13:39:47;;;;;;;70.55;29.02;;;9.30;99.90;;;;;;5064977;28;20088;-79
2021/12/14 13:42:26;;;;;;;66.63;27.58;;;9.30;99.90;;;;;;5089431;28;20556;-79
2021/12/14 13:44:53;;;;;;;67.13;27.60;;;9.30;99.90;;;;;;5082937;28;20114;-79